Time;durP1;ratioP1;P1;durP2;ratioP2;P2;SDS_P1;SDS_P2;PMS_P1;PMS_P2;Temp;Humidity;BMP_temperature;BMP_pressure;BME280_temperature;BME280_humidity;BME280_pressure;Samples;Min_cycle;Max_cycle;Signal;HPM_P1;HPM_P2
2023/03/27 03:00:17;;;;;;;9.87;9.17;;;4.50;99.90;;;;;;5997365;23;20188;31
2023/03/27 03:02:45;;;;;;;8.30;7.70;;;4.50;99.90;;;;;;4904669;29;20226;-78
2023/03/27 03:05:20;;;;;;;8.40;7.70;;;4.50;99.90;;;;;;4907939;29;20222;-78
2023/03/27 03:07:47;;;;;;;12.40;11.20;;;4.40;99.90;;;;;;4907163;29;20321;-78
2023/03/27 03:10:14;;;;;;;14.50;13.37;;;4.40;99.90;;;;;;4907811;29;20206;-78
2023/03/27 03:12:40;;;;;;;33.50;31.60;;;4.40;99.90;;;;;;4946038;23;20635;-82
2023/03/27 03:15:07;;;;;;;12.00;11.20;;;4.40;99.90;;;;;;4921378;29;20187;-82
2023/03/27 03:17:34;;;;;;;13.67;12.70;;;4.40;99.90;;;;;;4903069;29;20235;-82
2023/03/27 03:20:00;;;;;;;14.70;13.80;;;4.40;99.90;;;;;;4918270;29;20187;-81
2023/03/27 03:22:26;;;;;;;14.80;13.73;;;4.40;99.90;;;;;;4904753;29;20254;-78
2023/03/27 03:24:52;;;;;;;13.33;12.40;;;4.40;99.90;;;;;;4899014;29;20214;-80
2023/03/27 03:27:21;;;;;;;11.70;10.70;;;4.40;99.90;;;;;;4881812;29;20199;-82
2023/03/27 03:29:47;;;;;;;7.23;6.60;;;4.30;99.90;;;;;;4880973;29;20367;-82
2023/03/27 03:32:13;;;;;;;7.70;7.10;;;4.30;99.90;;;;;;4880983;29;20179;-82
2023/03/27 03:34:40;;;;;;;8.73;8.03;;;4.20;99.90;;;;;;4884590;29;20204;-81
2023/03/27 03:37:09;;;;;;;38.40;36.37;;;4.10;99.90;;;;;;4907017;29;20269;-81
2023/03/27 03:39:36;;;;;;;33.07;31.10;;;4.10;99.90;;;;;;4883688;29;20184;-82
2023/03/27 03:42:02;;;;;;;32.87;31.03;;;4.00;99.90;;;;;;4881164;29;20687;-82
2023/03/27 03:44:28;;;;;;;34.67;32.73;;;4.00;99.90;;;;;;4881639;29;20252;-82
2023/03/27 03:46:53;;;;;;;33.20;30.93;;;4.00;99.90;;;;;;4882204;29;20621;-81
2023/03/27 03:49:19;;;;;;;38.70;36.00;;;3.90;99.90;;;;;;4896750;29;20208;-82
2023/03/27 03:51:45;;;;;;;75.00;70.67;;;3.90;99.90;;;;;;4913396;29;20184;-81
2023/03/27 03:54:11;;;;;;;44.67;42.10;;;3.90;99.90;;;;;;4892373;29;20535;-81
2023/03/27 03:56:40;;;;;;;54.13;50.97;;;3.70;99.90;;;;;;4879635;29;20187;-81
2023/03/27 03:59:12;;;;;;;13.00;12.07;;;3.60;99.90;;;;;;4879262;29;20463;-81
2023/03/27 04:01:39;;;;;;;10.00;9.30;;;3.50;99.90;;;;;;4896542;29;20215;-81
2023/03/27 04:04:07;;;;;;;11.57;10.30;;;3.50;99.90;;;;;;4879904;29;20751;-81
2023/03/27 04:06:36;;;;;;;8.77;7.87;;;3.40;99.90;;;;;;4896293;29;20559;-81
2023/03/27 04:09:03;;;;;;;12.33;10.03;;;3.50;99.90;;;;;;4879188;29;20207;-81
2023/03/27 04:11:29;;;;;;;9.70;8.80;;;3.50;99.90;;;;;;4896287;29;20194;-81
2023/03/27 04:13:55;;;;;;;17.10;13.83;;;3.40;99.90;;;;;;4879990;29;20302;-82
2023/03/27 04:16:21;;;;;;;13.97;12.90;;;3.40;99.90;;;;;;4886333;29;20219;-82
2023/03/27 04:18:49;;;;;;;25.37;23.20;;;3.40;99.90;;;;;;4901709;29;20244;-82
2023/03/27 04:21:16;;;;;;;32.93;30.37;;;3.30;99.90;;;;;;4904363;29;20188;-82
2023/03/27 04:23:44;;;;;;;32.90;30.97;;;3.40;99.90;;;;;;4885613;29;20207;-82
2023/03/27 04:26:11;;;;;;;37.20;34.60;;;3.30;99.90;;;;;;4886937;29;20230;-82
2023/03/27 04:28:38;;;;;;;36.17;33.67;;;3.40;99.90;;;;;;4887728;29;20199;-82
2023/03/27 04:31:06;;;;;;;42.13;39.37;;;3.40;99.90;;;;;;4901930;29;20568;-82
2023/03/27 04:33:33;;;;;;;62.50;58.53;;;3.30;99.90;;;;;;4884833;29;20204;-82
2023/03/27 04:36:02;;;;;;;61.33;54.77;;;3.40;99.90;;;;;;4904036;29;20190;-82
2023/03/27 04:38:30;;;;;;;39.33;36.67;;;3.50;99.90;;;;;;4887740;29;20191;-82
2023/03/27 04:40:56;;;;;;;47.67;44.80;;;3.50;99.90;;;;;;4887210;29;20180;-82
2023/03/27 04:43:24;;;;;;;57.97;54.63;;;3.50;99.90;;;;;;4901121;29;20299;-82
2023/03/27 04:45:52;;;;;;;23.47;21.20;;;3.40;99.90;;;;;;4886265;29;20192;-82
2023/03/27 04:48:19;;;;;;;17.97;16.17;;;3.60;99.90;;;;;;4902024;29;20279;-81
2023/03/27 04:50:49;;;;;;;15.63;14.40;;;3.60;99.90;;;;;;4901103;29;20219;-82
2023/03/27 04:53:16;;;;;;;12.77;11.73;;;3.60;99.90;;;;;;4883418;29;20235;-82
2023/03/27 04:55:46;;;;;;;11.03;9.87;;;3.50;99.90;;;;;;4883489;29;20184;-80
2023/03/27 04:58:12;;;;;;;12.13;7.33;;;3.50;99.90;;;;;;4884126;29;20287;-82
2023/03/27 05:00:39;;;;;;;10.33;7.23;;;3.50;99.90;;;;;;4883645;29;20184;-80
2023/03/27 05:03:05;;;;;;;11.97;8.63;;;3.40;99.90;;;;;;4883977;29;20212;-80
2023/03/27 05:05:31;;;;;;;12.00;7.37;;;3.30;99.90;;;;;;4891125;29;20195;-79
2023/03/27 05:07:56;;;;;;;15.40;8.23;;;3.30;99.90;;;;;;4908699;29;20192;-79
2023/03/27 05:10:22;;;;;;;14.97;7.57;;;3.20;99.90;;;;;;4892071;29;20768;-79
2023/03/27 05:12:51;;;;;;;12.67;10.27;;;3.10;99.90;;;;;;4893416;29;20653;-80
2023/03/27 05:15:17;;;;;;;15.00;9.00;;;3.00;99.90;;;;;;4893419;29;20184;-81
2023/03/27 05:17:45;;;;;;;12.20;9.87;;;3.00;99.90;;;;;;4884150;29;20187;-81
2023/03/27 05:20:15;;;;;;;13.47;9.03;;;3.00;99.90;;;;;;4900413;29;20187;-80
2023/03/27 05:22:42;;;;;;;11.47;9.33;;;3.00;99.90;;;;;;4900854;29;20198;-81
2023/03/27 05:25:09;;;;;;;11.13;9.00;;;3.00;99.90;;;;;;4883699;29;20208;-81
2023/03/27 05:27:35;;;;;;;18.53;9.70;;;3.10;99.90;;;;;;4884020;29;20192;-81
2023/03/27 05:30:01;;;;;;;10.37;9.47;;;3.10;99.90;;;;;;4900916;29;20267;-81
2023/03/27 05:32:26;;;;;;;13.57;10.17;;;3.10;99.90;;;;;;4900536;29;20276;-81
2023/03/27 05:34:55;;;;;;;8.13;7.40;;;3.10;99.90;;;;;;4892777;29;20206;-81
2023/03/27 05:37:22;;;;;;;13.43;7.93;;;3.20;99.90;;;;;;4892576;29;20184;-81
2023/03/27 05:39:48;;;;;;;9.60;7.93;;;3.30;99.90;;;;;;4883516;29;20194;-81
2023/03/27 05:42:14;;;;;;;10.10;8.40;;;3.30;99.90;;;;;;4903043;29;20187;-80
2023/03/27 05:44:42;;;;;;;12.47;9.70;;;3.40;99.90;;;;;;4906890;29;20196;-79
2023/03/27 05:47:09;;;;;;;20.50;9.37;;;3.40;99.90;;;;;;4906777;29;20176;-80
2023/03/27 05:49:35;;;;;;;8.33;7.40;;;3.40;99.90;;;;;;4886441;29;20243;-81
2023/03/27 05:52:02;;;;;;;11.87;8.23;;;3.40;99.90;;;;;;4885489;29;20202;-81
2023/03/27 05:54:29;;;;;;;8.40;7.67;;;3.50;99.90;;;;;;4884704;29;20703;-81
2023/03/27 05:56:54;;;;;;;12.47;11.37;;;3.50;99.90;;;;;;4884252;29;20222;-81
2023/03/27 05:59:20;;;;;;;10.77;9.80;;;3.60;99.90;;;;;;4908539;29;20184;-80
2023/03/27 06:01:48;;;;;;;10.27;8.17;;;3.50;99.90;;;;;;4916217;29;20648;-81
2023/03/27 06:04:18;;;;;;;10.90;8.03;;;3.50;99.90;;;;;;4881768;29;20203;-81
2023/03/27 06:06:44;;;;;;;9.40;7.70;;;3.60;99.90;;;;;;4882271;29;20184;-81
2023/03/27 06:09:11;;;;;;;8.03;6.07;;;3.60;99.90;;;;;;4882080;29;20289;-81
2023/03/27 06:11:39;;;;;;;15.20;9.57;;;3.50;99.90;;;;;;4900569;29;20210;-80
2023/03/27 06:14:05;;;;;;;16.33;9.73;;;3.50;99.90;;;;;;4885475;29;20211;-81
2023/03/27 06:16:31;;;;;;;8.07;7.07;;;3.50;99.90;;;;;;4889770;29;20599;-82
2023/03/27 06:18:57;;;;;;;8.13;7.00;;;3.50;99.90;;;;;;4888284;29;20188;-82
2023/03/27 06:21:23;;;;;;;9.23;6.60;;;3.50;99.90;;;;;;4896875;29;20203;-80
2023/03/27 06:23:49;;;;;;;11.73;7.03;;;3.40;99.90;;;;;;4908753;29;20293;-82
2023/03/27 06:26:15;;;;;;;10.83;7.47;;;3.40;99.90;;;;;;4887656;29;20191;-80
2023/03/27 06:28:41;;;;;;;8.07;7.27;;;3.50;99.90;;;;;;4894903;29;20196;-81
2023/03/27 06:31:07;;;;;;;8.57;7.80;;;3.50;99.90;;;;;;4904291;29;20220;-81
2023/03/27 06:33:33;;;;;;;9.83;6.97;;;3.50;99.90;;;;;;4889383;29;20207;-82
2023/03/27 06:36:00;;;;;;;16.70;8.37;;;3.60;99.90;;;;;;4886444;29;20195;-81
2023/03/27 06:38:28;;;;;;;7.67;6.93;;;3.70;99.90;;;;;;4901899;29;20194;-81
2023/03/27 06:40:54;;;;;;;14.80;8.33;;;3.70;99.90;;;;;;4884044;29;20188;-82
2023/03/27 06:43:21;;;;;;;10.57;5.80;;;3.60;99.90;;;;;;4884791;29;20218;-80
2023/03/27 06:45:49;;;;;;;6.83;6.23;;;3.60;99.90;;;;;;4899538;29;20192;-82
2023/03/27 06:48:17;;;;;;;8.57;7.90;;;3.60;99.90;;;;;;4883978;29;20194;-81
2023/03/27 06:50:45;;;;;;;7.90;7.13;;;3.60;99.90;;;;;;4883896;29;20215;-80
2023/03/27 06:53:14;;;;;;;11.47;10.40;;;3.70;99.90;;;;;;4883737;29;20294;-79
2023/03/27 06:55:40;;;;;;;11.83;10.93;;;3.70;99.90;;;;;;4899500;29;20671;-79
2023/03/27 06:58:07;;;;;;;8.73;8.13;;;3.80;99.90;;;;;;4891158;29;20251;-80
2023/03/27 07:00:36;;;;;;;9.67;6.37;;;3.70;99.90;;;;;;4891346;29;20195;-83
2023/03/27 07:03:04;;;;;;;6.97;6.33;;;3.70;99.90;;;;;;4884372;29;20683;-83
2023/03/27 07:05:38;;;;;;;7.77;5.90;;;3.80;99.90;;;;;;4910466;29;20202;-79
2023/03/27 07:08:06;;;;;;;9.53;5.73;;;3.80;99.90;;;;;;4900680;29;20693;-82
2023/03/27 07:10:32;;;;;;;7.37;6.87;;;3.80;99.90;;;;;;4907234;29;20219;-80
2023/03/27 07:12:59;;;;;;;9.00;6.70;;;3.70;99.90;;;;;;4884045;29;20554;-80
2023/03/27 07:15:24;;;;;;;15.43;7.30;;;3.60;99.90;;;;;;4899083;29;20190;-80
2023/03/27 07:18:03;;;;;;;9.40;7.20;;;3.50;99.90;;;;;;4883219;29;20180;-81
2023/03/27 07:20:30;;;;;;;17.13;6.67;;;3.50;99.90;;;;;;4883094;29;20183;-81
2023/03/27 07:22:57;;;;;;;9.17;6.53;;;3.50;99.90;;;;;;4888560;29;20234;-80
2023/03/27 07:25:24;;;;;;;10.70;6.57;;;3.60;99.90;;;;;;4885882;29;20187;-80
2023/03/27 07:27:50;;;;;;;6.83;6.23;;;3.60;99.90;;;;;;4902240;29;20219;-81
2023/03/27 07:30:16;;;;;;;7.67;6.40;;;3.60;99.90;;;;;;4884239;29;20648;-80
2023/03/27 07:32:43;;;;;;;7.17;6.40;;;3.60;99.90;;;;;;4900241;29;20186;-81
2023/03/27 07:35:10;;;;;;;11.90;6.47;;;3.80;99.90;;;;;;4901960;29;20208;-80
2023/03/27 07:37:37;;;;;;;9.77;7.37;;;3.90;99.90;;;;;;4892672;29;20180;-79
2023/03/27 07:40:05;;;;;;;8.70;7.33;;;3.90;99.90;;;;;;4887431;29;20268;-81
2023/03/27 07:42:32;;;;;;;9.27;8.33;;;3.90;99.90;;;;;;4883401;29;20179;-81
2023/03/27 07:44:59;;;;;;;13.60;8.60;;;3.90;99.90;;;;;;4883820;29;20223;-81
2023/03/27 07:47:25;;;;;;;9.53;8.67;;;4.00;99.90;;;;;;4886030;29;20211;-80
2023/03/27 07:49:51;;;;;;;10.07;9.17;;;4.10;99.90;;;;;;4884359;29;20588;-82
2023/03/27 07:52:17;;;;;;;9.30;7.20;;;4.20;99.90;;;;;;4901412;29;20251;-83
2023/03/27 07:54:43;;;;;;;10.80;6.93;;;4.10;99.90;;;;;;4886764;29;20287;-82
2023/03/27 07:57:09;;;;;;;11.70;6.40;;;4.10;99.90;;;;;;4887106;29;20251;-82
2023/03/27 07:59:35;;;;;;;8.67;7.90;;;4.30;99.90;;;;;;4889444;29;20251;-82
2023/03/27 08:02:01;;;;;;;9.20;8.30;;;4.50;99.90;;;;;;4892475;29;20183;-82
2023/03/27 08:04:27;;;;;;;8.53;7.73;;;4.60;99.90;;;;;;4891539;29;20305;-83
2023/03/27 08:06:53;;;;;;;10.73;9.70;;;4.80;99.90;;;;;;4907380;29;20631;-81
2023/03/27 08:09:20;;;;;;;9.73;7.73;;;4.80;99.90;;;;;;4906949;29;20212;-82
2023/03/27 08:11:46;;;;;;;9.40;8.70;;;4.80;99.90;;;;;;4885910;29;20271;-81
2023/03/27 08:14:12;;;;;;;11.80;7.57;;;4.80;99.90;;;;;;4883846;29;20219;-82
2023/03/27 08:16:37;;;;;;;9.13;8.23;;;4.80;99.90;;;;;;4900429;29;20176;-82
2023/03/27 08:19:05;;;;;;;9.43;7.23;;;4.60;99.90;;;;;;4898762;29;20187;-81
2023/03/27 08:21:32;;;;;;;11.10;6.97;;;4.60;99.90;;;;;;4883540;29;20204;-81
2023/03/27 08:24:00;;;;;;;10.50;9.47;;;4.70;99.90;;;;;;4883965;29;20214;-82
2023/03/27 08:26:26;;;;;;;7.67;6.93;;;5.20;99.90;;;;;;4893270;29;20172;-80
2023/03/27 08:28:53;;;;;;;10.17;6.83;;;5.70;99.90;;;;;;4922872;29;20211;-81
2023/03/27 08:31:19;;;;;;;7.83;5.23;;;6.10;99.90;;;;;;4900532;29;20226;-83
2023/03/27 08:33:45;;;;;;;10.03;5.87;;;6.50;99.90;;;;;;4911099;29;20591;-81
2023/03/27 08:36:13;;;;;;;11.43;6.20;;;6.90;99.90;;;;;;4890098;29;20283;-83
2023/03/27 08:38:42;;;;;;;7.43;5.60;;;6.40;99.90;;;;;;4904675;29;20191;-83
2023/03/27 08:41:41;;;;;;;6.40;5.87;;;5.90;99.90;;;;;;4888071;29;20184;-83
2023/03/27 08:44:12;;;;;;;5.43;5.00;;;5.50;99.90;;;;;;4886831;29;20221;-83
2023/03/27 08:46:51;;;;;;;6.67;6.00;;;5.50;99.90;;;;;;4920156;29;20195;-82
2023/03/27 08:49:21;;;;;;;7.60;5.93;;;5.80;99.90;;;;;;4888427;29;20223;-83
2023/03/27 08:51:53;;;;;;;8.37;6.47;;;5.60;99.90;;;;;;4887041;29;20533;-82
2023/03/27 08:54:24;;;;;;;10.03;6.13;;;5.40;99.90;;;;;;4886492;29;20736;-83
2023/03/27 08:56:50;;;;;;;7.40;6.90;;;5.80;99.90;;;;;;4902970;29;20652;-82
2023/03/27 08:59:20;;;;;;;10.27;6.50;;;6.50;99.90;;;;;;4885993;29;20184;-83
2023/03/27 09:01:55;;;;;;;7.37;4.77;;;6.80;99.90;;;;;;4886444;29;20677;-82
2023/03/27 09:04:24;;;;;;;5.13;4.83;;;6.90;99.90;;;;;;4885270;29;20295;-83
2023/03/27 09:07:14;;;;;;;5.03;4.73;;;6.40;99.90;;;;;;4892985;29;20188;-83
2023/03/27 09:10:01;;;;;;;12.67;5.30;;;6.50;99.90;;;;;;4901771;29;20707;-83
2023/03/27 09:12:51;;;;;;;7.00;5.47;;;7.10;99.90;;;;;;4886177;29;20188;-83
2023/03/27 09:15:26;;;;;;;6.87;5.70;;;7.30;99.90;;;;;;4939080;23;20699;-79
2023/03/27 09:18:05;;;;;;;7.50;4.97;;;7.10;99.90;;;;;;4925042;29;20267;-79
2023/03/27 09:20:36;;;;;;;5.43;4.70;;;7.50;99.90;;;;;;4940882;28;20186;-79
2023/03/27 09:23:34;;;;;;;10.53;5.00;;;8.20;99.90;;;;;;4923214;29;20197;-79
2023/03/27 09:26:05;;;;;;;6.07;4.57;;;8.10;99.90;;;;;;4920494;29;20195;-80
2023/03/27 09:28:49;;;;;;;9.47;5.17;;;7.90;99.90;;;;;;4903915;29;20223;-80
2023/03/27 09:31:26;;;;;;;10.07;5.97;;;8.40;99.90;;;;;;4921437;29;20246;-80
2023/03/27 09:33:54;;;;;;;9.13;5.87;;;8.50;99.90;;;;;;4920751;29;20271;-80
2023/03/27 09:36:23;;;;;;;8.40;5.90;;;8.50;99.90;;;;;;4904154;29;20192;-79
2023/03/27 09:38:57;;;;;;;6.00;5.60;;;8.80;99.90;;;;;;4903337;29;20182;-79
2023/03/27 09:41:28;;;;;;;5.53;5.07;;;8.50;99.90;;;;;;4920720;29;20215;-79
2023/03/27 09:44:06;;;;;;;5.30;4.90;;;8.60;99.90;;;;;;4921489;29;20207;-80
2023/03/27 09:46:37;;;;;;;4.80;4.43;;;9.00;99.90;;;;;;4904573;29;20197;-80
2023/03/27 09:49:13;;;;;;;6.43;4.73;;;9.50;99.90;;;;;;4908598;29;20238;-79
2023/03/27 09:51:48;;;;;;;5.60;4.00;;;10.10;99.90;;;;;;4916715;29;20356;-80
2023/03/27 09:54:17;;;;;;;8.10;4.53;;;10.20;99.90;;;;;;4913388;29;20210;-79
2023/03/27 09:56:52;;;;;;;4.80;4.40;;;11.10;99.90;;;;;;4926906;29;20179;-80
2023/03/27 09:59:19;;;;;;;7.43;5.13;;;11.20;99.90;;;;;;4905001;29;20195;-80
2023/03/27 10:01:47;;;;;;;11.10;4.23;;;10.40;99.90;;;;;;4904855;29;20562;-80
2023/03/27 10:04:16;;;;;;;4.33;3.97;;;9.90;99.90;;;;;;4921464;29;20209;-80
2023/03/27 10:07:04;;;;;;;6.17;4.27;;;9.50;99.90;;;;;;4915149;29;20190;-80
2023/03/27 10:09:35;;;;;;;6.13;4.30;;;9.90;99.90;;;;;;4909345;29;20234;-80
2023/03/27 10:12:05;;;;;;;4.83;3.90;;;9.40;99.90;;;;;;4925283;29;20218;-79
2023/03/27 10:14:38;;;;;;;4.30;4.00;;;9.60;99.90;;;;;;4907689;29;20219;-80
2023/03/27 10:17:05;;;;;;;3.90;3.50;;;10.10;99.90;;;;;;4925068;29;20608;-80
2023/03/27 10:19:38;;;;;;;5.17;3.70;;;10.80;99.40;;;;;;4908083;29;20183;-79
2023/03/27 10:22:30;;;;;;;4.57;4.10;;;10.40;99.70;;;;;;4927316;29;20183;-80
2023/03/27 10:25:14;;;;;;;6.53;4.20;;;9.60;99.90;;;;;;4928280;29;20601;-79
2023/03/27 10:27:42;;;;;;;7.63;4.00;;;10.10;99.50;;;;;;4926970;29;20194;-79
2023/03/27 10:30:34;;;;;;;4.50;4.10;;;9.50;98.80;;;;;;4909339;29;20554;-79
2023/03/27 10:33:01;;;;;;;5.27;4.03;;;9.80;99.00;;;;;;4925920;29;20210;-80
2023/03/27 10:35:34;;;;;;;8.10;3.93;;;10.70;99.10;;;;;;4922128;29;20289;-79
2023/03/27 10:38:02;;;;;;;5.97;4.40;;;11.00;99.10;;;;;;4921654;29;20191;-80
2023/03/27 10:40:34;;;;;;;5.17;4.10;;;10.70;97.70;;;;;;4920898;29;20568;-80
2023/03/27 10:43:08;;;;;;;4.67;4.33;;;10.10;96.30;;;;;;4929988;29;20187;-79
2023/03/27 10:45:45;;;;;;;4.50;4.20;;;10.00;97.00;;;;;;4916351;29;20191;-79
2023/03/27 10:48:21;;;;;;;7.63;4.67;;;10.80;96.60;;;;;;4933403;29;20201;-79
2023/03/27 10:50:53;;;;;;;4.87;4.50;;;10.40;96.30;;;;;;4915393;29;20613;-78
2023/03/27 10:53:51;;;;;;;7.73;5.00;;;9.50;96.90;;;;;;4906706;29;20603;-80
2023/03/27 10:56:33;;;;;;;5.67;4.67;;;10.00;97.90;;;;;;4914146;29;20290;-77
2023/03/27 10:59:03;;;;;;;4.43;4.03;;;10.80;96.00;;;;;;4903503;29;20614;-77
2023/03/27 11:01:48;;;;;;;11.90;10.90;;;11.60;94.50;;;;;;4921414;29;20244;-77
2023/03/27 11:04:18;;;;;;;5.63;5.00;;;11.90;92.00;;;;;;4919873;29;20207;-78
2023/03/27 11:06:47;;;;;;;6.03;5.03;;;10.60;93.70;;;;;;4920186;29;20179;-77
2023/03/27 11:09:16;;;;;;;5.23;4.83;;;9.20;96.00;;;;;;4919625;29;20207;-78
2023/03/27 11:11:58;;;;;;;5.53;5.23;;;8.80;97.50;;;;;;4906540;29;20183;-78
2023/03/27 11:14:31;;;;;;;10.00;6.43;;;8.90;98.10;;;;;;4903217;29;20222;-78
2023/03/27 11:17:04;;;;;;;5.23;4.37;;;9.10;99.50;;;;;;4903942;29;20652;-79
2023/03/27 11:19:41;;;;;;;5.13;4.70;;;10.30;97.40;;;;;;4903016;29;20710;-78
2023/03/27 11:22:15;;;;;;;5.33;4.83;;;11.10;98.00;;;;;;4903065;29;20190;-79
2023/03/27 11:24:57;;;;;;;5.07;4.60;;;11.30;96.10;;;;;;4902286;29;20207;-78
2023/03/27 11:27:52;;;;;;;8.70;5.13;;;10.20;94.70;;;;;;4901592;29;20534;-78
2023/03/27 11:30:32;;;;;;;5.67;5.20;;;9.10;97.20;;;;;;4900104;29;20218;-79
2023/03/27 11:33:31;;;;;;;6.13;4.40;;;8.60;99.30;;;;;;4901249;29;20195;-79
2023/03/27 11:36:13;;;;;;;8.67;4.43;;;8.20;99.70;;;;;;4901382;29;20187;-79
2023/03/27 11:38:45;;;;;;;8.00;4.87;;;8.00;99.90;;;;;;4901170;29;20246;-79
2023/03/27 11:41:12;;;;;;;5.40;4.23;;;8.10;99.90;;;;;;4922164;29;20218;-77
2023/03/27 11:43:39;;;;;;;7.30;5.90;;;8.00;99.60;;;;;;4921352;29;20579;-78
2023/03/27 11:46:22;;;;;;;5.47;4.97;;;8.00;99.90;;;;;;4923584;29;20257;-78
2023/03/27 11:49:11;;;;;;;4.40;4.00;;;9.10;99.70;;;;;;4920230;29;20191;-79
2023/03/27 11:51:46;;;;;;;5.53;4.40;;;10.20;97.50;;;;;;4920125;29;20190;-79
2023/03/27 11:54:21;;;;;;;4.40;4.10;;;10.50;97.50;;;;;;4902866;29;20202;-79
2023/03/27 11:56:54;;;;;;;4.50;4.13;;;11.10;92.70;;;;;;4902504;29;20182;-79
2023/03/27 11:59:23;;;;;;;5.23;4.70;;;10.30;93.50;;;;;;4920237;29;20675;-78
2023/03/27 12:02:29;;;;;;;6.77;6.33;;;9.70;93.60;;;;;;4919920;29;20210;-79
2023/03/27 12:05:31;;;;;;;7.17;4.97;;;9.20;94.60;;;;;;4880458;29;20208;-79
2023/03/27 12:08:05;;;;;;;9.03;5.33;;;8.60;96.70;;;;;;4837560;29;20200;-78
2023/03/27 12:10:33;;;;;;;6.13;4.07;;;8.10;97.10;;;;;;4892357;29;20319;-78
2023/03/27 12:12:59;;;;;;;5.40;3.87;;;7.80;98.00;;;;;;4904959;29;20655;-78
2023/03/27 12:15:38;;;;;;;5.10;4.07;;;7.70;98.30;;;;;;4909160;29;20219;-77
2023/03/27 12:18:11;;;;;;;7.07;4.77;;;7.80;98.30;;;;;;4906384;29;20189;-79
2023/03/27 12:20:59;;;;;;;4.47;4.00;;;8.70;97.60;;;;;;4906610;29;20195;-80
2023/03/27 12:23:51;;;;;;;4.70;4.40;;;10.50;94.20;;;;;;4920123;29;20259;-79
2023/03/27 12:26:36;;;;;;;4.77;4.37;;;10.80;93.00;;;;;;4900526;29;20198;-79
2023/03/27 12:29:27;;;;;;;4.90;4.47;;;10.40;92.60;;;;;;4902750;29;20270;-79
2023/03/27 12:32:09;;;;;;;4.90;4.50;;;9.80;92.70;;;;;;4901354;29;20194;-78
2023/03/27 12:34:53;;;;;;;5.60;5.10;;;9.10;95.20;;;;;;4918237;29;20590;-78
2023/03/27 12:37:24;;;;;;;5.57;5.10;;;8.60;96.00;;;;;;4917636;29;20184;-78
2023/03/27 12:39:56;;;;;;;5.73;5.07;;;8.90;96.90;;;;;;4918987;29;20274;-79
2023/03/27 12:43:02;;;;;;;6.43;4.47;;;9.60;95.80;;;;;;4921926;29;20187;-79
2023/03/27 12:45:28;;;;;;;4.80;4.40;;;9.90;93.20;;;;;;4865456;29;20216;-79
2023/03/27 12:48:09;;;;;;;4.53;4.20;;;9.80;94.20;;;;;;4881684;29;20188;-79
2023/03/27 12:50:50;;;;;;;4.30;4.10;;;9.60;93.30;;;;;;4890880;29;20707;-78
2023/03/27 12:53:25;;;;;;;5.33;5.07;;;9.40;93.60;;;;;;4923185;29;20560;-79
2023/03/27 12:56:15;;;;;;;4.40;4.00;;;9.10;93.30;;;;;;4904168;29;20225;-78
2023/03/27 12:58:43;;;;;;;5.97;5.20;;;8.50;93.30;;;;;;4903661;29;20187;-79
2023/03/27 13:01:16;;;;;;;5.37;4.87;;;8.30;94.90;;;;;;4922036;29;20240;-79
2023/03/27 13:04:23;;;;;;;5.00;4.70;;;8.30;96.00;;;;;;4923078;29;20230;-78
2023/03/27 13:07:04;;;;;;;11.07;4.87;;;8.50;96.30;;;;;;4907270;29;20609;-79
2023/03/27 13:09:53;;;;;;;5.37;4.43;;;8.70;95.50;;;;;;4903736;29;20297;-79
2023/03/27 13:12:46;;;;;;;5.30;4.80;;;8.70;95.20;;;;;;4904381;29;20240;-79
2023/03/27 13:15:25;;;;;;;5.50;5.10;;;8.40;95.10;;;;;;4903796;29;20702;-79
2023/03/27 13:18:08;;;;;;;5.30;4.90;;;8.20;93.90;;;;;;4904150;29;20468;-79
2023/03/27 13:20:53;;;;;;;4.27;3.87;;;8.00;95.60;;;;;;4903387;29;20695;-78
2023/03/27 13:23:46;;;;;;;4.40;4.00;;;7.80;96.40;;;;;;4904506;29;20190;-79
2023/03/27 13:26:37;;;;;;;4.90;4.30;;;7.70;97.60;;;;;;4904011;29;20198;-78
2023/03/27 13:29:14;;;;;;;5.03;4.13;;;7.70;97.20;;;;;;4920273;29;20285;-79
2023/03/27 13:31:46;;;;;;;4.63;4.23;;;7.70;97.10;;;;;;4905243;29;20206;-78
2023/03/27 13:34:31;;;;;;;6.00;5.40;;;7.70;97.20;;;;;;4907485;29;20205;-78
2023/03/27 13:37:06;;;;;;;9.07;8.13;;;7.70;98.40;;;;;;4908098;29;20251;-78
2023/03/27 13:39:57;;;;;;;5.47;5.07;;;7.60;99.90;;;;;;4904234;29;20191;-79
2023/03/27 13:42:36;;;;;;;9.07;6.77;;;7.30;99.90;;;;;;4904438;29;20191;-79
2023/03/27 13:45:17;;;;;;;9.03;8.43;;;7.10;99.90;;;;;;4904815;29;20206;-79
2023/03/27 13:48:10;;;;;;;9.07;7.93;;;6.90;99.90;;;;;;4922871;29;20187;-79
2023/03/27 13:50:55;;;;;;;6.50;5.73;;;6.40;99.90;;;;;;4907163;29;20221;-77
2023/03/27 13:53:56;;;;;;;5.13;4.87;;;6.50;99.90;;;;;;4907839;29;20187;-78
2023/03/27 13:56:22;;;;;;;7.27;6.77;;;6.50;99.90;;;;;;4902868;29;20197;-77
2023/03/27 13:59:11;;;;;;;9.47;8.77;;;6.30;99.90;;;;;;4927767;29;20212;-78
2023/03/27 14:01:46;;;;;;;7.73;7.23;;;6.10;99.90;;;;;;4910948;29;20183;-78
2023/03/27 14:04:40;;;;;;;4.87;4.60;;;6.40;99.90;;;;;;4906757;29;20238;-78
2023/03/27 14:07:23;;;;;;;5.17;4.70;;;6.40;99.90;;;;;;4907269;29;20183;-78
2023/03/27 14:09:55;;;;;;;5.63;5.17;;;6.30;99.90;;;;;;4904398;29;20223;-78
2023/03/27 14:12:43;;;;;;;5.83;5.43;;;7.20;99.90;;;;;;4905674;29;20329;-77
2023/03/27 14:15:27;;;;;;;5.10;4.70;;;8.30;99.90;;;;;;4924016;29;20219;-78
2023/03/27 14:18:31;;;;;;;9.43;8.60;;;9.50;99.90;;;;;;4905454;29;20183;-79
2023/03/27 14:21:04;;;;;;;5.93;5.50;;;10.80;99.90;;;;;;4892402;29;20191;-77
2023/03/27 14:23:40;;;;;;;6.10;5.70;;;10.80;99.90;;;;;;4921981;29;20213;-79
2023/03/27 14:26:17;;;;;;;7.30;6.23;;;10.30;99.90;;;;;;4923098;29;20306;-79
2023/03/27 14:28:57;;;;;;;7.00;6.50;;;9.70;99.90;;;;;;4906009;29;20605;-79
2023/03/27 14:31:25;;;;;;;6.80;6.37;;;9.60;99.90;;;;;;4922927;29;20186;-79
2023/03/27 14:34:01;;;;;;;6.80;6.30;;;9.10;99.90;;;;;;4905978;29;20219;-79
2023/03/27 14:36:32;;;;;;;6.57;6.27;;;8.60;99.90;;;;;;4904240;29;20182;-78
2023/03/27 14:39:13;;;;;;;8.17;7.30;;;8.70;99.90;;;;;;4904064;29;20191;-78
2023/03/27 14:41:56;;;;;;;7.57;7.27;;;8.80;99.90;;;;;;4925379;29;20183;-76
2023/03/27 14:44:24;;;;;;;6.97;6.57;;;9.90;99.90;;;;;;4940713;29;20263;-76
2023/03/27 14:46:59;;;;;;;5.97;5.47;;;11.10;99.90;;;;;;4924169;29;20202;-77
2023/03/27 14:49:36;;;;;;;7.40;6.80;;;12.80;99.90;;;;;;4919870;29;20309;-78
2023/03/27 14:52:05;;;;;;;4.40;4.20;;;13.60;99.90;;;;;;4909933;29;20275;-78
2023/03/27 14:54:31;;;;;;;3.93;3.73;;;13.90;97.50;;;;;;4921723;29;20234;-79
2023/03/27 14:56:59;;;;;;;5.33;4.93;;;14.10;96.40;;;;;;4903729;29;20220;-78
2023/03/27 14:59:34;;;;;;;5.73;5.33;;;13.70;96.20;;;;;;4904148;29;20211;-78
2023/03/27 15:02:03;;;;;;;3.83;3.63;;;11.90;97.90;;;;;;4922568;29;20216;-77
2023/03/27 15:04:31;;;;;;;6.77;6.23;;;10.00;99.90;;;;;;4906618;29;20664;-77
2023/03/27 15:07:18;;;;;;;4.83;4.47;;;8.90;99.90;;;;;;4904510;29;20194;-78
2023/03/27 15:10:05;;;;;;;8.40;7.87;;;8.30;99.90;;;;;;4920701;29;20282;-78
2023/03/27 15:12:34;;;;;;;8.27;7.67;;;8.50;99.90;;;;;;4904327;29;20432;-78
2023/03/27 15:15:00;;;;;;;9.93;9.10;;;8.50;99.90;;;;;;4901361;29;20215;-78
2023/03/27 15:17:30;;;;;;;8.90;8.20;;;8.50;99.90;;;;;;4900434;29;20258;-78
2023/03/27 15:20:08;;;;;;;7.33;6.63;;;8.90;99.90;;;;;;4903886;29;20183;-78
2023/03/27 15:22:46;;;;;;;8.20;7.60;;;8.80;99.90;;;;;;4904519;29;20206;-78
2023/03/27 15:25:24;;;;;;;8.13;6.80;;;8.80;99.90;;;;;;4905008;29;20296;-78
2023/03/27 15:27:54;;;;;;;8.37;7.67;;;9.20;99.90;;;;;;4919779;29;20199;-77
2023/03/27 15:30:32;;;;;;;8.90;8.37;;;10.20;99.90;;;;;;4900495;29;20207;-78
2023/03/27 15:33:03;;;;;;;8.37;7.77;;;10.60;99.90;;;;;;4916489;29;20182;-77
2023/03/27 15:35:41;;;;;;;8.03;7.53;;;10.00;99.90;;;;;;4921754;29;20214;-77
2023/03/27 15:38:11;;;;;;;5.83;5.23;;;10.70;99.90;;;;;;4902624;29;20255;-78
2023/03/27 15:40:41;;;;;;;4.93;4.63;;;10.80;99.90;;;;;;4899593;29;20198;-78
2023/03/27 15:43:13;;;;;;;6.13;5.60;;;9.70;99.90;;;;;;4899426;29;20186;-78
2023/03/27 15:45:54;;;;;;;8.10;7.63;;;8.60;99.90;;;;;;4899336;29;20187;-78
2023/03/27 15:48:22;;;;;;;8.27;7.77;;;7.90;99.90;;;;;;4915882;29;20277;-78
2023/03/27 15:50:57;;;;;;;7.23;6.63;;;8.50;99.90;;;;;;4899229;29;20215;-78
2023/03/27 15:53:31;;;;;;;6.70;6.40;;;9.80;99.90;;;;;;4916023;29;20241;-78
2023/03/27 15:55:58;;;;;;;6.03;5.67;;;10.50;99.90;;;;;;4900711;29;20216;-77
2023/03/27 15:58:26;;;;;;;5.03;4.73;;;10.70;99.90;;;;;;4903330;29;20175;-77
2023/03/27 16:00:58;;;;;;;8.27;5.23;;;10.10;99.90;;;;;;4922859;29;20187;-77
2023/03/27 16:03:26;;;;;;;5.50;5.10;;;10.60;99.90;;;;;;4922758;29;20191;-77
2023/03/27 16:05:56;;;;;;;6.43;6.00;;;11.20;99.90;;;;;;4921162;29;20184;-77
2023/03/27 16:08:33;;;;;;;4.10;3.90;;;12.00;99.90;;;;;;4899673;29;20198;-78
2023/03/27 16:10:59;;;;;;;5.27;4.77;;;11.50;99.40;;;;;;4915575;29;20222;-77
2023/03/27 16:13:33;;;;;;;4.50;4.10;;;11.30;99.90;;;;;;4898804;29;20187;-78
2023/03/27 16:16:15;;;;;;;5.63;5.23;;;9.80;99.70;;;;;;4920205;29;20179;-77
2023/03/27 16:18:41;;;;;;;7.73;6.40;;;8.60;99.90;;;;;;4902276;29;20183;-78